»·PEaware :: UAL313 KSFO-KRNO

UAL313 :: KSFO-KRNO

FLIGHT INFORMATION

Flight Status: Arrived
Operator:
United Airlines
More flights by this operator :: More flights under this callsign
Pilot: Anonymous 20536 (20536)
Aircraft: BOEING 737-800
(B738)
More flights by this aircraft type
Origin: KSFO San Francisco Intl
United States
Destination: KRNO Reno/Tahoe Intl
United States
More flights between these airports :: More routes between these airports
Route: TRUKN2 ORRCA HOBOA WALAR
File this flight plan on PilotEdge
Remarks:
Altitude:
(Current/Filed)
25,000ft
Speed:
(Current/Filed)
380kts
Departed: 27-Sep-18 07:14 AM
Arrived: 27-Sep-18 07:50 AM
Distance/Time
Traveled:
166nm/0:36
Distance/Time
To Go:
Arrived

Flight Plot

Page will automatically refresh every two minutes.

Flight plan parsing failed; only flown route is shown


Map Options




Map Legend


Flown Route
Filed Route
Departure Airport
Arrival Airport
Navaid (VOR, NDB)
Fix

Horizontal Profiles

Position Reports

Time Latitude Longitude Heading Altitude Ground
Speed
27-Sep-18 07:02 37.619187 -122.383519 291 20ft 0kts
27-Sep-18 07:03 37.619187 -122.383519 291 20ft 0kts
27-Sep-18 07:04 37.619187 -122.383519 291 20ft 0kts
27-Sep-18 07:05 37.619187 -122.383519 291 20ft 0kts
27-Sep-18 07:06 37.619187 -122.383519 291 20ft 0kts
27-Sep-18 07:07 37.619187 -122.383519 291 20ft 0kts
27-Sep-18 07:08 37.619187 -122.383519 291 20ft 0kts
27-Sep-18 07:09 37.619187 -122.383519 291 20ft 0kts
27-Sep-18 07:10 37.619161 -122.383436 291 20ft 2kts
27-Sep-18 07:11 37.618714 -122.383084 18 20ft 2kts
27-Sep-18 07:12 37.618608 -122.383151 29 20ft 0kts
27-Sep-18 07:13 37.619428 -122.382559 39 20ft 13kts
27-Sep-18 07:14 37.615635 -122.380285 208 20ft 21kts
27-Sep-18 07:15 37.610383 -122.383797 212 21ft 21kts
27-Sep-18 07:16 37.612941 -122.379575 27 21ft 100kts
27-Sep-18 07:17 37.648709 -122.345035 53 1890ft 207kts
27-Sep-18 07:18 37.687465 -122.272477 56 4550ft 276kts
27-Sep-18 07:19 37.735818 -122.196422 37 8233ft 293kts
27-Sep-18 07:20 37.805395 -122.135041 36 11040ft 330kts
27-Sep-18 07:21 37.881408 -122.066329 36 14160ft 345kts
27-Sep-18 07:22 37.959669 -121.995130 36 17026ft 359kts
27-Sep-18 07:23 38.041814 -121.919817 36 19605ft 373kts
27-Sep-18 07:24 38.125985 -121.842658 35 21904ft 387kts
27-Sep-18 07:25 38.213997 -121.762024 35 24038ft 399kts
27-Sep-18 07:26 38.304777 -121.678910 35 25002ft 416kts
27-Sep-18 07:27 38.401099 -121.590736 35 25009ft 443kts
27-Sep-18 07:28 38.496079 -121.485455 47 25002ft 465kts
27-Sep-18 07:29 38.587620 -121.364782 45 25025ft 481kts
27-Sep-18 07:30 38.678553 -121.246215 45 25019ft 481kts
27-Sep-18 07:31 38.772541 -121.123828 45 25025ft 483kts
27-Sep-18 07:32 38.866600 -121.001523 44 25051ft 483kts
27-Sep-18 07:33 38.960661 -120.879360 44 25039ft 476kts
27-Sep-18 07:34 39.044967 -120.769969 44 25036ft 400kts
27-Sep-18 07:35 39.121078 -120.671335 44 24245ft 384kts
27-Sep-18 07:36 39.195089 -120.575540 44 22097ft 374kts
27-Sep-18 07:37 39.267397 -120.482031 44 19817ft 367kts
27-Sep-18 07:38 39.337116 -120.391940 44 17941ft 351kts
27-Sep-18 07:39 39.403846 -120.305770 45 16120ft 338kts
27-Sep-18 07:40 39.462253 -120.218308 49 16076ft 308kts
27-Sep-18 07:41 39.516837 -120.136140 49 16009ft 285kts
27-Sep-18 07:42 39.566372 -120.061563 49 15196ft 269kts
27-Sep-18 07:43 39.613425 -119.990830 49 13695ft 261kts
27-Sep-18 07:44 39.659577 -119.921475 49 11784ft 255kts
27-Sep-18 07:45 39.704512 -119.854009 49 9569ft 246kts
27-Sep-18 07:46 39.727756 -119.780327 127 7394ft 231kts
27-Sep-18 07:47 39.673155 -119.768684 180 7411ft 202kts
27-Sep-18 07:48 39.617435 -119.768904 180 6590ft 183kts
27-Sep-18 07:49 39.572088 -119.769012 179 5705ft 155kts
27-Sep-18 07:50 39.528825 -119.769047 180 4808ft 156kts
27-Sep-18 07:51 39.495644 -119.769274 180 4423ft 55kts
27-Sep-18 07:52 39.492636 -119.770659 244 4423ft 13kts
27-Sep-18 07:53 39.497301 -119.771515 359 4423ft 21kts
27-Sep-18 07:54 39.503373 -119.771508 1 4423ft 22kts
27-Sep-18 07:55 39.505273 -119.772748 197 4423ft 0kts
27-Sep-18 07:56 39.505273 -119.772748 197 4423ft 0kts
27-Sep-18 07:57 39.505273 -119.772748 197 4423ft 0kts
27-Sep-18 07:58 39.505273 -119.772748 197 4423ft 0kts

Navigation Log

Ident Type
Flight plan parsing failed, navigation log unavailable